createdAt,value
2019-04-11T00:02:06.640Z,9.10
2019-04-11T00:04:32.671Z,9.10
2019-04-11T00:07:00.269Z,11.83
2019-04-11T00:09:27.037Z,9.13
2019-04-11T00:11:54.433Z,8.90
2019-04-11T00:14:20.432Z,12.13
2019-04-11T00:16:47.690Z,9.00
2019-04-11T00:19:15.510Z,8.63
2019-04-11T00:21:41.353Z,8.90
2019-04-11T00:24:08.207Z,8.33
2019-04-11T00:26:36.107Z,7.97
2019-04-11T00:29:02.086Z,9.53
2019-04-11T00:31:30.565Z,10.43
2019-04-11T00:33:56.477Z,8.53
2019-04-11T00:36:24.218Z,11.33
2019-04-11T00:38:50.328Z,8.10
2019-04-11T00:41:17.590Z,8.93
2019-04-11T00:43:45.391Z,9.47
2019-04-11T00:46:11.935Z,9.43
2019-04-11T00:48:38.119Z,9.73
2019-04-11T00:51:05.055Z,8.93
2019-04-11T00:53:32.003Z,8.80
2019-04-11T00:55:59.880Z,7.63
2019-04-11T00:58:25.914Z,15.10
2019-04-11T01:00:53.514Z,10.27
2019-04-11T01:03:20.170Z,9.73
2019-04-11T01:05:47.797Z,9.20
2019-04-11T01:08:13.781Z,11.47
2019-04-11T01:10:41.547Z,9.57
2019-04-11T01:13:07.618Z,10.73
2019-04-11T01:15:34.539Z,10.70
2019-04-11T01:18:01.539Z,11.53
2019-04-11T01:20:29.333Z,9.47
2019-04-11T01:22:56.368Z,11.27
2019-04-11T01:25:22.284Z,8.70
2019-04-11T01:27:50.025Z,9.47
2019-04-11T01:30:18.440Z,16.40
2019-04-11T01:32:47.044Z,11.37
2019-04-11T01:35:15.139Z,8.53
2019-04-11T01:37:41.863Z,9.67
2019-04-11T01:40:07.884Z,9.77
2019-04-11T01:42:35.595Z,7.70
2019-04-11T01:45:01.721Z,8.67
2019-04-11T01:47:51.013Z,22.37
2019-04-11T01:50:20.940Z,11.80
2019-04-11T01:52:48.680Z,12.80
2019-04-11T01:55:14.580Z,12.47
2019-04-11T01:57:43.145Z,7.97
2019-04-11T02:00:09.743Z,8.43
2019-04-11T02:02:44.613Z,12.03
2019-04-11T02:05:29.354Z,9.23
2019-04-11T02:07:55.844Z,7.90
2019-04-11T02:10:22.785Z,7.40
2019-04-11T02:12:49.719Z,9.17
2019-04-11T02:15:16.683Z,9.70
2019-04-11T02:17:43.614Z,8.00
2019-04-11T02:20:10.599Z,11.03
2019-04-11T02:22:44.160Z,9.50
2019-04-11T02:25:22.677Z,11.23
2019-04-11T02:27:48.701Z,10.27
2019-04-11T02:30:17.896Z,8.17
2019-04-11T02:32:43.370Z,9.13
2019-04-11T02:35:11.216Z,8.23
2019-04-11T02:37:38.103Z,7.93
2019-04-11T02:40:07.616Z,8.17
2019-04-11T02:42:32.972Z,10.67
2019-04-11T02:45:13.110Z,10.40
2019-04-11T02:47:31.216Z,7.93
2019-04-11T02:49:54.946Z,7.90
2019-04-11T02:52:20.328Z,8.33
2019-04-11T02:54:47.475Z,7.37
2019-04-11T02:57:14.778Z,13.43
2019-04-11T02:59:43.233Z,7.50
2019-04-11T03:02:09.126Z,7.97
2019-04-11T03:04:34.985Z,8.70
2019-04-11T03:07:01.897Z,11.43
2019-04-11T03:09:29.202Z,9.93
2019-04-11T03:11:56.802Z,9.60
2019-04-11T03:14:23.281Z,8.27
2019-04-11T03:16:59.653Z,7.93
2019-04-11T03:19:29.762Z,8.87
2019-04-11T03:21:46.395Z,8.10
2019-04-11T03:24:11.046Z,14.37
2019-04-11T03:26:37.812Z,9.90
2019-04-11T03:29:06.307Z,7.53
2019-04-11T03:32:13.703Z,12.83
2019-04-11T03:34:52.144Z,10.97
2019-04-11T03:39:15.553Z,8.17
2019-04-11T03:41:34.857Z,8.10
2019-04-11T03:43:58.216Z,8.43
2019-04-11T03:46:30.193Z,13.60
2019-04-11T03:48:53.391Z,10.00
2019-04-11T03:51:08.875Z,9.70
2019-04-11T03:53:36.423Z,8.67
2019-04-11T03:56:01.777Z,10.97
2019-04-11T03:58:29.441Z,9.30
2019-04-11T04:01:00.937Z,9.80
2019-04-11T04:03:22.584Z,8.50
2019-04-11T04:05:50.490Z,9.40
2019-04-11T04:08:16.051Z,10.27
2019-04-11T04:11:04.052Z,10.00
2019-04-11T04:13:31.760Z,14.73
2019-04-11T04:16:13.436Z,8.60
2019-04-11T04:18:38.235Z,10.80
2019-04-11T04:21:19.950Z,9.17
2019-04-11T04:23:49.636Z,11.27
2019-04-11T04:26:16.874Z,9.27
2019-04-11T04:28:43.032Z,10.67
2019-04-11T04:31:11.282Z,10.03
2019-04-11T04:33:38.431Z,13.03
2019-04-11T04:36:06.599Z,9.20
2019-04-11T04:38:31.578Z,10.97
2019-04-11T04:41:10.099Z,10.27
2019-04-11T04:43:26.909Z,10.73
2019-04-11T04:46:08.849Z,10.77
2019-04-11T04:48:24.219Z,11.13
2019-04-11T04:50:46.798Z,11.47
2019-04-11T04:53:13.717Z,9.17
2019-04-11T04:55:41.197Z,9.67
2019-04-11T04:58:07.220Z,9.27
2019-04-11T05:00:34.814Z,10.63
2019-04-11T05:03:02.271Z,10.10
2019-04-11T05:05:29.222Z,12.43
2019-04-11T05:07:56.163Z,12.93
2019-04-11T05:10:22.119Z,11.83
2019-04-11T05:12:48.456Z,11.50
2019-04-11T05:15:16.614Z,10.23
2019-04-11T05:17:44.010Z,10.57
2019-04-11T05:20:09.275Z,10.17
2019-04-11T05:22:37.219Z,17.70
2019-04-11T05:25:03.890Z,23.20
2019-04-11T05:27:30.087Z,18.67
2019-04-11T05:29:57.035Z,19.07
2019-04-11T05:32:25.656Z,13.67
2019-04-11T05:34:51.182Z,16.83
2019-04-11T05:37:18.617Z,13.67
2019-04-11T05:39:46.055Z,15.97
2019-04-11T05:42:15.984Z,18.70
2019-04-11T05:44:40.736Z,11.73
2019-04-11T05:47:07.003Z,11.30
2019-04-11T05:49:50.606Z,10.13
2019-04-11T05:52:17.770Z,11.10
2019-04-11T05:54:49.281Z,10.23
2019-04-11T05:57:13.676Z,12.23
2019-04-11T05:59:43.266Z,8.63
2019-04-11T06:02:19.290Z,8.83
2019-04-11T06:04:53.483Z,10.37
2019-04-11T06:07:23.182Z,10.60
2019-04-11T06:09:52.527Z,13.87
2019-04-11T06:12:29.635Z,9.23
2019-04-11T06:15:03.961Z,16.97
2019-04-11T06:17:30.372Z,14.50
2019-04-11T06:20:17.742Z,9.83
2019-04-11T06:22:52.390Z,11.00
2019-04-11T06:25:25.816Z,8.43
2019-04-11T06:27:57.981Z,11.13
2019-04-11T06:30:30.570Z,11.63
2019-04-11T06:33:03.179Z,13.93
2019-04-11T06:35:42.084Z,11.27
2019-04-11T06:38:30.314Z,10.70
2019-04-11T06:41:03.363Z,12.60
2019-04-11T06:43:36.764Z,13.20
2019-04-11T06:46:09.478Z,9.80
2019-04-11T06:48:42.159Z,10.17
2019-04-11T06:51:19.870Z,11.10
2019-04-11T06:53:54.678Z,10.47
2019-04-11T06:56:41.228Z,10.67
2019-04-11T06:59:12.780Z,11.07
2019-04-11T07:01:42.637Z,9.53
2019-04-11T07:04:13.656Z,9.80
2019-04-11T07:06:42.365Z,9.73
2019-04-11T07:09:33.031Z,15.27
2019-04-11T07:12:04.025Z,14.20
2019-04-11T07:14:41.829Z,11.13
2019-04-11T07:17:15.486Z,14.40
2019-04-11T07:20:04.498Z,12.97
2019-04-11T07:22:36.892Z,10.90
2019-04-11T07:25:26.924Z,12.50
2019-04-11T07:28:03.422Z,11.90
2019-04-11T07:30:35.366Z,11.90
2019-04-11T07:33:20.466Z,10.97
2019-04-11T07:36:08.358Z,11.87
2019-04-11T07:38:41.800Z,10.57
2019-04-11T07:41:29.867Z,11.50
2019-04-11T07:43:58.347Z,11.17
2019-04-11T07:46:40.740Z,14.90
2019-04-11T07:49:08.254Z,11.67
2019-04-11T07:51:42.862Z,11.37
2019-04-11T07:54:12.124Z,12.83
2019-04-11T07:56:48.583Z,12.17
2019-04-11T07:59:25.173Z,11.03
2019-04-11T08:01:59.253Z,12.50
2019-04-11T08:04:47.529Z,11.30
2019-04-11T08:07:24.542Z,12.50
2019-04-11T08:09:57.716Z,11.80
2019-04-11T08:12:27.631Z,11.53
2019-04-11T08:15:01.367Z,10.80
2019-04-11T08:17:37.710Z,13.30
2019-04-11T08:20:05.017Z,15.27
2019-04-11T08:22:35.863Z,14.73
2019-04-11T08:25:26.076Z,12.40
2019-04-11T08:28:00.718Z,11.90
2019-04-11T08:30:26.596Z,11.00
2019-04-11T08:32:54.916Z,11.53
2019-04-11T08:35:45.452Z,12.37
2019-04-11T08:38:14.517Z,12.40
2019-04-11T08:40:49.119Z,11.30
2019-04-11T08:43:21.294Z,11.87
2019-04-11T08:45:51.459Z,17.03
2019-04-11T08:48:19.228Z,11.07
2019-04-11T08:50:48.820Z,11.93
2019-04-11T08:53:30.892Z,11.47
2019-04-11T08:56:02.114Z,13.23
2019-04-11T08:58:36.515Z,11.10
2019-04-11T09:01:05.389Z,11.13
2019-04-11T09:03:38.188Z,11.87
2019-04-11T09:06:12.545Z,14.13
2019-04-11T09:08:58.611Z,17.33
2019-04-11T09:11:28.787Z,12.27
2019-04-11T09:14:17.438Z,13.97
2019-04-11T09:16:50.101Z,14.03
2019-04-11T09:19:25.053Z,13.57
2019-04-11T09:21:56.605Z,13.70
2019-04-11T09:24:44.130Z,12.30
2019-04-11T09:27:16.940Z,13.43
2019-04-11T09:29:48.421Z,16.53
2019-04-11T09:32:34.664Z,12.57
2019-04-11T09:35:08.325Z,16.20
2019-04-11T09:37:36.177Z,12.40
2019-04-11T09:40:24.425Z,13.53
2019-04-11T09:43:11.618Z,13.80
2019-04-11T09:45:59.805Z,13.23
2019-04-11T09:48:31.837Z,13.30
2019-04-11T09:51:05.714Z,12.57
2019-04-11T09:53:34.489Z,14.33
2019-04-11T09:56:06.849Z,14.63
2019-04-11T09:58:33.733Z,14.40
2019-04-11T10:01:13.433Z,18.40
2019-04-11T10:03:40.864Z,13.90
2019-04-11T10:06:14.000Z,13.07
2019-04-11T10:08:41.969Z,13.60
2019-04-11T10:11:30.433Z,12.80
2019-04-11T10:14:17.627Z,13.60
2019-04-11T10:17:04.977Z,14.23
2019-04-11T10:19:40.202Z,13.80
2019-04-11T10:22:29.166Z,12.87
2019-04-11T10:25:07.238Z,13.43
2019-04-11T10:27:44.771Z,12.10
2019-04-11T10:30:36.248Z,13.00
2019-04-11T10:33:08.702Z,14.93
2019-04-11T10:35:40.774Z,13.33
2019-04-11T10:38:07.127Z,15.20
2019-04-11T10:40:39.992Z,14.07
2019-04-11T10:43:07.771Z,13.73
2019-04-11T10:45:44.851Z,15.67
2019-04-11T10:48:13.780Z,13.87
2019-04-11T10:51:00.411Z,14.20
2019-04-11T10:53:27.128Z,13.90
2019-04-11T10:56:13.927Z,13.47
2019-04-11T10:58:45.972Z,14.50
2019-04-11T11:01:18.464Z,16.03
2019-04-11T11:03:55.553Z,13.23
2019-04-11T11:06:24.381Z,14.73
2019-04-11T11:09:03.950Z,11.03
2019-04-11T11:11:34.542Z,16.27
2019-04-11T11:14:18.780Z,11.63
2019-04-11T11:17:04.651Z,14.17
2019-04-11T11:20:07.693Z,12.80
2019-04-11T11:22:39.053Z,16.43
2019-04-11T11:25:13.587Z,15.53
2019-04-11T11:27:37.110Z,13.60
2019-04-11T11:30:10.801Z,14.00
2019-04-11T11:32:39.241Z,13.03
2019-04-11T11:35:12.839Z,15.90
2019-04-11T11:37:43.388Z,13.00
2019-04-11T11:40:17.978Z,15.17
2019-04-11T11:43:03.141Z,16.73
2019-04-11T11:45:47.943Z,13.83
2019-04-11T11:48:28.860Z,13.27
2019-04-11T11:50:57.416Z,14.97
2019-04-11T11:53:35.208Z,13.17
2019-04-11T11:56:02.697Z,14.20
2019-04-11T11:58:35.464Z,15.03
2019-04-11T12:01:05.909Z,14.20
2019-04-11T12:03:42.342Z,13.37
2019-04-11T12:06:09.657Z,13.03
2019-04-11T12:08:50.932Z,13.90
2019-04-11T12:11:16.095Z,11.90
2019-04-11T12:14:02.687Z,13.17
2019-04-11T12:16:36.703Z,15.67
2019-04-11T12:19:17.159Z,13.53
2019-04-11T12:21:41.022Z,12.70
2019-04-11T12:24:27.916Z,14.27
2019-04-11T12:27:00.157Z,12.87
2019-04-11T12:29:36.545Z,14.37
2019-04-11T12:32:06.289Z,14.60
2019-04-11T12:34:48.258Z,14.13
2019-04-11T12:37:22.637Z,11.73
2019-04-11T12:39:55.095Z,14.97
2019-04-11T12:42:25.484Z,12.43
2019-04-11T12:44:59.732Z,11.43
2019-04-11T12:47:31.013Z,11.27
2019-04-11T12:50:23.541Z,12.70
2019-04-11T12:52:56.133Z,12.63
2019-04-11T12:55:28.222Z,12.50
2019-04-11T12:58:00.924Z,13.33
2019-04-11T13:00:36.965Z,12.70
2019-04-11T13:03:09.737Z,14.90
2019-04-11T13:05:36.688Z,16.67
2019-04-11T13:08:09.492Z,13.10
2019-04-11T13:10:38.152Z,15.20
2019-04-11T13:13:10.935Z,13.23
2019-04-11T13:15:45.261Z,14.57
2019-04-11T13:18:18.041Z,13.30
2019-04-11T13:20:53.085Z,11.80
2019-04-11T13:23:30.687Z,13.07
2019-04-11T13:26:03.381Z,15.47
2019-04-11T13:28:30.366Z,16.93
2019-04-11T13:31:16.329Z,15.20
2019-04-11T13:33:43.263Z,13.40
2019-04-11T13:36:28.543Z,12.90
2019-04-11T13:38:55.470Z,14.20
2019-04-11T13:41:28.211Z,17.87
2019-04-11T13:43:58.093Z,13.50
2019-04-11T13:46:46.499Z,14.30
2019-04-11T13:49:19.355Z,11.63
2019-04-11T13:51:52.032Z,13.07
2019-04-11T13:54:38.832Z,14.53
2019-04-11T13:57:25.418Z,14.23
2019-04-11T13:59:58.164Z,16.60
2019-04-11T14:02:38.055Z,12.90
2019-04-11T14:05:06.028Z,12.17
2019-04-11T14:07:33.004Z,15.07
2019-04-11T14:10:01.669Z,13.57
2019-04-11T14:12:27.228Z,12.80
2019-04-11T14:14:57.601Z,13.87
2019-04-11T14:17:34.594Z,13.70
2019-04-11T14:20:08.845Z,13.63
2019-04-11T14:22:54.755Z,13.17
2019-04-11T14:25:30.856Z,14.67
2019-04-11T14:27:59.729Z,14.40
2019-04-11T14:30:52.622Z,13.70
2019-04-11T14:33:19.272Z,12.40
2019-04-11T14:36:06.067Z,11.53
2019-04-11T14:38:33.061Z,14.33
2019-04-11T14:41:12.443Z,12.90
2019-04-11T14:43:45.858Z,11.53
2019-04-11T14:46:27.913Z,11.80
2019-04-11T14:48:57.192Z,11.87
2019-04-11T14:51:46.315Z,12.73
2019-04-11T14:54:17.109Z,13.60
2019-04-11T14:56:47.883Z,14.40
2019-04-11T14:59:39.241Z,12.63
2019-04-11T15:02:11.072Z,12.50
2019-04-11T15:04:52.075Z,12.83
2019-04-11T15:07:19.056Z,12.47
2019-04-11T15:09:59.253Z,11.93
2019-04-11T15:12:27.842Z,13.07
2019-04-11T15:15:15.199Z,13.50
2019-04-11T15:17:42.193Z,11.23
2019-04-11T15:20:17.169Z,13.30
2019-04-11T15:22:48.708Z,13.67
2019-04-11T15:25:37.915Z,13.20
2019-04-11T15:28:12.344Z,12.43
2019-04-11T15:30:38.252Z,14.37
2019-04-11T15:33:27.109Z,13.87
2019-04-11T15:35:57.631Z,14.40
2019-04-11T15:38:36.576Z,12.73
2019-04-11T15:41:03.948Z,13.67
2019-04-11T15:43:36.571Z,11.67
2019-04-11T15:46:08.508Z,12.43
2019-04-11T15:48:56.034Z,13.20
2019-04-11T15:51:28.864Z,16.40
2019-04-11T15:54:09.131Z,11.47
2019-04-11T15:56:42.003Z,11.90
2019-04-11T15:59:23.404Z,12.73
2019-04-11T16:02:11.916Z,14.03
2019-04-11T16:05:02.113Z,13.40
2019-04-11T16:07:47.444Z,14.03
2019-04-11T16:10:14.430Z,13.97
2019-04-11T16:12:49.128Z,11.73
2019-04-11T16:15:16.105Z,11.97
2019-04-11T16:17:48.775Z,13.93
2019-04-11T16:20:18.849Z,13.50
2019-04-11T16:23:01.777Z,11.17
2019-04-11T16:25:29.780Z,13.57
2019-04-11T16:28:20.165Z,13.93
2019-04-11T16:30:49.351Z,12.27
2019-04-11T16:33:35.940Z,13.30
2019-04-11T16:36:06.808Z,11.87
2019-04-11T16:38:40.500Z,11.90
2019-04-11T16:41:13.175Z,11.17
2019-04-11T16:43:40.856Z,13.67
2019-04-11T16:46:30.443Z,12.83
2019-04-11T16:48:57.375Z,13.40
2019-04-11T16:51:30.641Z,13.07
2019-04-11T16:53:51.259Z,12.40
2019-04-11T16:56:18.193Z,11.67
2019-04-11T16:58:49.335Z,14.13
2019-04-11T17:01:12.763Z,13.03
2019-04-11T17:03:39.723Z,13.83
2019-04-11T17:06:13.500Z,12.40
2019-04-11T17:09:00.180Z,14.70
2019-04-11T17:11:27.663Z,14.03
2019-04-11T17:13:56.968Z,12.77
2019-04-11T17:16:21.653Z,13.20
2019-04-11T17:18:48.632Z,13.20
2019-04-11T17:21:15.542Z,14.40
2019-04-11T17:23:42.498Z,13.73
2019-04-11T17:26:09.425Z,18.43
2019-04-11T17:28:36.361Z,14.13
2019-04-11T17:31:03.413Z,15.57
2019-04-11T17:33:30.381Z,13.57
2019-04-11T17:35:57.327Z,13.10
2019-04-11T17:38:24.390Z,14.53
2019-04-11T17:40:51.410Z,12.87
2019-04-11T17:43:18.377Z,14.30
2019-04-11T17:45:45.417Z,15.37
2019-04-11T17:48:12.447Z,13.23
2019-04-11T17:50:39.459Z,16.43
2019-04-11T17:53:06.438Z,13.90
2019-04-11T17:55:33.507Z,14.30
2019-04-11T17:58:01.638Z,15.80
2019-04-11T18:00:30.552Z,17.20
2019-04-11T18:02:58.147Z,21.67
2019-04-11T18:05:25.096Z,18.37
2019-04-11T18:07:52.081Z,21.37
2019-04-11T18:10:19.079Z,20.57
2019-04-11T18:12:46.065Z,17.70
2019-04-11T18:15:13.062Z,16.90
2019-04-11T18:17:40.075Z,19.33
2019-04-11T18:20:07.624Z,29.97
2019-04-11T18:22:34.177Z,19.10
2019-04-11T18:25:01.186Z,17.83
2019-04-11T18:27:28.181Z,13.77
2019-04-11T18:29:55.170Z,12.70
2019-04-11T18:32:22.492Z,14.60
2019-04-11T18:34:49.533Z,13.70
2019-04-11T18:37:16.523Z,14.30
2019-04-11T18:39:43.534Z,17.90
2019-04-11T18:42:10.516Z,19.23
2019-04-11T18:44:37.520Z,18.33
2019-04-11T18:47:04.524Z,27.97
2019-04-11T18:49:31.503Z,25.27
2019-04-11T18:51:58.500Z,14.60
2019-04-11T18:54:25.632Z,14.20
2019-04-11T18:56:52.676Z,12.83
2019-04-11T18:59:19.721Z,14.70
2019-04-11T19:01:46.679Z,13.97
2019-04-11T19:04:14.205Z,12.73
2019-04-11T19:06:43.010Z,13.37
2019-04-11T19:09:08.573Z,13.87
2019-04-11T19:11:35.536Z,13.10
2019-04-11T19:14:02.499Z,13.73
2019-04-11T19:16:29.456Z,12.83
2019-04-11T19:18:56.418Z,14.43
2019-04-11T19:21:23.339Z,11.70
2019-04-11T19:23:50.352Z,13.27
2019-04-11T19:26:17.288Z,12.20
2019-04-11T19:28:44.296Z,10.37
2019-04-11T19:31:12.391Z,12.43
2019-04-11T19:33:39.961Z,11.07
2019-04-11T19:36:05.096Z,14.37
2019-04-11T19:38:33.022Z,14.53
2019-04-11T19:40:59.947Z,11.00
2019-04-11T19:43:26.884Z,10.90
2019-04-11T19:45:53.841Z,12.00
2019-04-11T19:48:22.697Z,10.70
2019-04-11T19:50:47.849Z,13.47
2019-04-11T19:53:14.812Z,12.93
2019-04-11T19:55:47.727Z,11.90
2019-04-11T19:58:14.723Z,17.90
2019-04-11T20:00:41.729Z,8.93
2019-04-11T20:03:08.664Z,8.97
2019-04-11T20:05:37.376Z,10.93
2019-04-11T20:08:04.330Z,11.47
2019-04-11T20:10:31.378Z,10.83
2019-04-11T20:12:59.093Z,9.37
2019-04-11T20:15:36.463Z,10.17
2019-04-11T20:17:52.240Z,10.33
2019-04-11T20:20:19.097Z,9.77
2019-04-11T20:22:58.039Z,11.57
2019-04-11T20:25:16.010Z,9.93
2019-04-11T20:27:40.039Z,9.80
2019-04-11T20:30:07.059Z,8.97
2019-04-11T20:32:33.976Z,8.63
2019-04-11T20:35:00.908Z,10.03
2019-04-11T20:37:38.803Z,12.40
2019-04-11T20:39:54.811Z,10.40
2019-04-11T20:42:24.054Z,8.73
2019-04-11T20:44:49.628Z,7.93
2019-04-11T20:47:18.146Z,9.37
2019-04-11T20:49:48.512Z,9.90
2019-04-11T20:52:15.474Z,9.00
2019-04-11T20:54:42.400Z,8.37
2019-04-11T20:57:11.891Z,8.60
2019-04-11T20:59:41.423Z,14.80
2019-04-11T21:02:03.273Z,24.93
2019-04-11T21:04:31.348Z,12.90
2019-04-11T21:07:01.727Z,9.47
2019-04-11T21:09:25.624Z,11.80
2019-04-11T21:11:52.555Z,13.07
2019-04-11T21:14:19.796Z,9.00
2019-04-11T21:16:46.738Z,10.17
2019-04-11T21:19:13.672Z,9.47
2019-04-11T21:21:40.628Z,9.03
2019-04-11T21:24:07.610Z,9.43
2019-04-11T21:26:34.584Z,12.50
2019-04-11T21:29:01.596Z,11.67
2019-04-11T21:31:30.801Z,12.87
2019-04-11T21:33:55.522Z,8.97
2019-04-11T21:36:22.582Z,9.20
2019-04-11T21:38:49.516Z,9.47
2019-04-11T21:41:16.475Z,8.23
2019-04-11T21:43:43.484Z,10.47
2019-04-11T21:46:10.434Z,11.23
2019-04-11T21:48:37.392Z,10.40
2019-04-11T21:51:04.356Z,10.03
2019-04-11T21:53:36.650Z,12.23
2019-04-11T21:55:58.229Z,8.73
2019-04-11T21:58:25.191Z,10.77
2019-04-11T22:00:56.955Z,8.93
2019-04-11T22:03:24.737Z,10.57
2019-04-11T22:05:50.837Z,9.03
2019-04-11T22:08:18.059Z,14.43
2019-04-11T22:10:44.984Z,9.87
2019-04-11T22:13:11.958Z,9.40
2019-04-11T22:15:42.112Z,8.20
2019-04-11T22:18:05.860Z,8.43
2019-04-11T22:20:32.817Z,8.47
2019-04-11T22:22:59.765Z,8.40
2019-04-11T22:25:26.684Z,7.80
2019-04-11T22:27:54.397Z,8.57
2019-04-11T22:30:25.079Z,8.40
2019-04-11T22:33:01.598Z,8.67
2019-04-11T22:35:29.521Z,9.13
2019-04-11T22:37:59.646Z,8.27
2019-04-11T22:40:22.811Z,8.33
2019-04-11T22:42:49.761Z,9.43
2019-04-11T22:45:16.784Z,8.07
2019-04-11T22:47:43.731Z,7.90
2019-04-11T22:50:10.739Z,9.67
2019-04-11T22:52:39.783Z,9.83
2019-04-11T22:55:04.599Z,8.63
2019-04-11T22:57:31.535Z,9.50
2019-04-11T22:59:59.059Z,7.67
2019-04-11T23:02:35.020Z,11.33
2019-04-11T23:05:01.959Z,8.63
2019-04-11T23:07:28.888Z,8.73
2019-04-11T23:09:56.579Z,9.30
2019-04-11T23:12:23.541Z,9.40
2019-04-11T23:14:50.479Z,10.07
2019-04-11T23:17:17.445Z,8.47
2019-04-11T23:19:44.690Z,8.67
2019-04-11T23:22:12.135Z,14.57
2019-04-11T23:24:38.287Z,11.37
2019-04-11T23:27:05.233Z,9.60
2019-04-11T23:29:32.176Z,12.47
2019-04-11T23:31:59.128Z,8.93
2019-04-11T23:34:26.085Z,10.37
2019-04-11T23:36:53.014Z,9.53
2019-04-11T23:39:22.709Z,8.50
2019-04-11T23:41:49.450Z,10.40
2019-04-11T23:44:13.866Z,8.30
2019-04-11T23:46:40.811Z,8.53
2019-04-11T23:49:07.727Z,9.13
2019-04-11T23:51:34.643Z,8.50
2019-04-11T23:54:01.588Z,9.17
2019-04-11T23:56:30.621Z,8.37
2019-04-11T23:58:55.591Z,7.80
